sensor_id;sensor_type;location;lat;lon;timestamp;pressure;altitude;pressure_sealevel;temperature;humidity
57000;BME280;42891;50.006;21.964;2022-11-02T00:01:58;99312.09;;;12.29;86.19
57000;BME280;42891;50.006;21.964;2022-11-02T00:05:59;99315.72;;;12.28;86.07
57000;BME280;42891;50.006;21.964;2022-11-02T00:09:59;99304.44;;;12.26;86.16
57000;BME280;42891;50.006;21.964;2022-11-02T00:13:59;99306.38;;;12.24;86.33
57000;BME280;42891;50.006;21.964;2022-11-02T00:18:00;99306.09;;;12.27;86.11
57000;BME280;42891;50.006;21.964;2022-11-02T00:22:02;99303.72;;;12.24;86.29
57000;BME280;42891;50.006;21.964;2022-11-02T00:26:02;99307.78;;;12.28;86.42
57000;BME280;42891;50.006;21.964;2022-11-02T00:30:03;99310.56;;;12.26;86.78
57000;BME280;42891;50.006;21.964;2022-11-02T00:34:03;99303.19;;;12.20;86.71
57000;BME280;42891;50.006;21.964;2022-11-02T00:38:04;99304.44;;;12.16;87.25
57000;BME280;42891;50.006;21.964;2022-11-02T00:42:04;99307.09;;;12.16;87.31
57000;BME280;42891;50.006;21.964;2022-11-02T00:46:05;99314.88;;;12.18;87.63
57000;BME280;42891;50.006;21.964;2022-11-02T00:50:05;99303.59;;;12.25;87.13
57000;BME280;42891;50.006;21.964;2022-11-02T00:54:05;99307.47;;;12.31;86.90
57000;BME280;42891;50.006;21.964;2022-11-02T00:58:05;99303.59;;;12.35;86.72
57000;BME280;42891;50.006;21.964;2022-11-02T01:02:05;99301.94;;;12.34;87.01
57000;BME280;42891;50.006;21.964;2022-11-02T01:06:06;99298.03;;;12.38;86.58
57000;BME280;42891;50.006;21.964;2022-11-02T01:10:07;99300.53;;;12.40;87.00
57000;BME280;42891;50.006;21.964;2022-11-02T01:14:08;99296.78;;;12.42;86.71
57000;BME280;42891;50.006;21.964;2022-11-02T01:18:08;99294.13;;;12.42;86.71
57000;BME280;42891;50.006;21.964;2022-11-02T01:22:09;99300.53;;;12.40;86.76
57000;BME280;42891;50.006;21.964;2022-11-02T01:26:09;99293.69;;;12.37;87.04
57000;BME280;42891;50.006;21.964;2022-11-02T01:30:11;99298.84;;;12.39;87.11
57000;BME280;42891;50.006;21.964;2022-11-02T01:34:11;99294.66;;;12.46;86.61
57000;BME280;42891;50.006;21.964;2022-11-02T01:38:11;99284.78;;;12.48;86.94
57000;BME280;42891;50.006;21.964;2022-11-02T01:42:22;99288.97;;;12.51;87.18
57000;BME280;42891;50.006;21.964;2022-11-02T01:46:42;99288.53;;;12.45;87.44
57000;BME280;42891;50.006;21.964;2022-11-02T01:50:42;99292.97;;;12.55;87.04
57000;BME280;42891;50.006;21.964;2022-11-02T01:54:44;99291.03;;;12.57;87.23
57000;BME280;42891;50.006;21.964;2022-11-02T01:58:45;99294.50;;;12.57;87.45
57000;BME280;42891;50.006;21.964;2022-11-02T02:02:48;99290.75;;;12.60;87.52
57000;BME280;42891;50.006;21.964;2022-11-02T02:06:49;99293.00;;;12.65;87.69
57000;BME280;42891;50.006;21.964;2022-11-02T02:10:50;99292.69;;;12.68;87.47
57000;BME280;42891;50.006;21.964;2022-11-02T02:14:50;99285.44;;;12.70;87.20
57000;BME280;42891;50.006;21.964;2022-11-02T02:18:54;99289.75;;;12.71;87.76
57000;BME280;42891;50.006;21.964;2022-11-02T02:27:08;99288.38;;;12.67;87.54
57000;BME280;42891;50.006;21.964;2022-11-02T02:31:13;99290.72;;;12.70;87.61
57000;BME280;42891;50.006;21.964;2022-11-02T02:39:32;99286.13;;;12.72;87.63
57000;BME280;42891;50.006;21.964;2022-11-02T02:43:42;99293.78;;;12.75;88.16
57000;BME280;42891;50.006;21.964;2022-11-02T02:47:57;99294.34;;;12.78;88.11
57000;BME280;42891;50.006;21.964;2022-11-02T02:51:58;99303.13;;;12.79;88.27
57000;BME280;42891;50.006;21.964;2022-11-02T02:55:59;99310.09;;;12.80;88.31
57000;BME280;42891;50.006;21.964;2022-11-02T03:00:00;99300.19;;;12.82;88.47
57000;BME280;42891;50.006;21.964;2022-11-02T03:04:00;99308.00;;;12.84;89.09
57000;BME280;42891;50.006;21.964;2022-11-02T03:08:08;99302.00;;;12.82;89.67
57000;BME280;42891;50.006;21.964;2022-11-02T03:12:20;99307.84;;;12.85;89.34
57000;BME280;42891;50.006;21.964;2022-11-02T03:16:41;99313.84;;;12.87;89.84
57000;BME280;42891;50.006;21.964;2022-11-02T03:24:48;99310.50;;;12.85;90.99
57000;BME280;42891;50.006;21.964;2022-11-02T03:33:06;99320.00;;;12.78;91.71
57000;BME280;42891;50.006;21.964;2022-11-02T03:41:18;99324.16;;;12.90;91.36
57000;BME280;42891;50.006;21.964;2022-11-02T03:45:20;99326.25;;;12.96;90.98
57000;BME280;42891;50.006;21.964;2022-11-02T03:49:21;99327.22;;;12.95;91.08
57000;BME280;42891;50.006;21.964;2022-11-02T03:57:31;99331.00;;;12.83;92.35
57000;BME280;42891;50.006;21.964;2022-11-02T04:01:43;99331.00;;;12.93;91.85
57000;BME280;42891;50.006;21.964;2022-11-02T04:05:43;99331.44;;;12.78;92.56
57000;BME280;42891;50.006;21.964;2022-11-02T04:09:43;99324.00;;;12.92;92.06
57000;BME280;42891;50.006;21.964;2022-11-02T04:13:44;99330.41;;;12.99;91.56
57000;BME280;42891;50.006;21.964;2022-11-02T04:18:03;99322.91;;;12.94;91.57
57000;BME280;42891;50.006;21.964;2022-11-02T04:22:22;99326.38;;;12.95;91.43
57000;BME280;42891;50.006;21.964;2022-11-02T04:26:40;99327.91;;;12.98;91.21
57000;BME280;42891;50.006;21.964;2022-11-02T04:30:41;99326.00;;;12.90;91.26
57000;BME280;42891;50.006;21.964;2022-11-02T04:34:41;99338.22;;;12.91;90.99
57000;BME280;42891;50.006;21.964;2022-11-02T04:38:41;99326.00;;;12.90;91.11
57000;BME280;42891;50.006;21.964;2022-11-02T04:42:44;99330.56;;;12.88;90.86
57000;BME280;42891;50.006;21.964;2022-11-02T04:46:45;99337.25;;;12.92;90.95
57000;BME280;42891;50.006;21.964;2022-11-02T04:50:45;99340.22;;;12.89;90.89
57000;BME280;42891;50.006;21.964;2022-11-02T04:54:45;99336.19;;;12.75;91.55
57000;BME280;42891;50.006;21.964;2022-11-02T04:58:55;99348.31;;;12.77;91.68
57000;BME280;42891;50.006;21.964;2022-11-02T05:02:56;99344.81;;;12.77;91.77
57000;BME280;42891;50.006;21.964;2022-11-02T05:06:56;99351.13;;;12.76;91.51
57000;BME280;42891;50.006;21.964;2022-11-02T05:10:57;99338.97;;;12.73;91.69
57000;BME280;42891;50.006;21.964;2022-11-02T05:14:58;99343.56;;;12.61;92.36
57000;BME280;42891;50.006;21.964;2022-11-02T05:18:58;99352.91;;;12.75;91.90
57000;BME280;42891;50.006;21.964;2022-11-02T05:22:58;99355.72;;;12.54;93.00
57000;BME280;42891;50.006;21.964;2022-11-02T05:26:58;99363.13;;;12.70;92.29
57000;BME280;42891;50.006;21.964;2022-11-02T05:31:02;99370.50;;;12.76;92.11
57000;BME280;42891;50.006;21.964;2022-11-02T05:35:02;99374.09;;;12.85;91.47
57000;BME280;42891;50.006;21.964;2022-11-02T05:39:03;99385.25;;;12.89;91.16
57000;BME280;42891;50.006;21.964;2022-11-02T05:43:03;99380.78;;;12.89;90.68
57000;BME280;42891;50.006;21.964;2022-11-02T05:47:03;99395.28;;;12.85;91.10
57000;BME280;42891;50.006;21.964;2022-11-02T05:51:04;99390.88;;;12.66;91.65
57000;BME280;42891;50.006;21.964;2022-11-02T05:55:04;99401.84;;;12.81;91.52
57000;BME280;42891;50.006;21.964;2022-11-02T05:59:04;99400.59;;;12.85;91.65
57000;BME280;42891;50.006;21.964;2022-11-02T06:03:05;99408.41;;;12.77;91.65
57000;BME280;42891;50.006;21.964;2022-11-02T06:07:05;99415.09;;;12.71;91.96
57000;BME280;42891;50.006;21.964;2022-11-02T06:11:06;99422.38;;;12.79;91.31
57000;BME280;42891;50.006;21.964;2022-11-02T06:15:07;99421.94;;;12.74;91.42
57000;BME280;42891;50.006;21.964;2022-11-02T06:19:07;99427.81;;;12.77;91.37
57000;BME280;42891;50.006;21.964;2022-11-02T06:23:07;99430.31;;;12.79;91.12
57000;BME280;42891;50.006;21.964;2022-11-02T06:27:07;99441.34;;;12.84;90.63
57000;BME280;42891;50.006;21.964;2022-11-02T06:31:08;99440.34;;;12.85;90.26
57000;BME280;42891;50.006;21.964;2022-11-02T06:35:08;99442.03;;;12.86;90.08
57000;BME280;42891;50.006;21.964;2022-11-02T06:39:09;99444.81;;;12.85;90.02
57000;BME280;42891;50.006;21.964;2022-11-02T06:43:09;99447.91;;;12.90;89.76
57000;BME280;42891;50.006;21.964;2022-11-02T06:47:11;99447.31;;;12.86;89.77
57000;BME280;42891;50.006;21.964;2022-11-02T06:51:11;99450.94;;;12.85;90.21
57000;BME280;42891;50.006;21.964;2022-11-02T06:55:12;99457.50;;;12.91;90.00
57000;BME280;42891;50.006;21.964;2022-11-02T06:59:12;99462.53;;;12.84;90.00
57000;BME280;42891;50.006;21.964;2022-11-02T07:03:12;99465.88;;;12.96;89.92
57000;BME280;42891;50.006;21.964;2022-11-02T07:07:13;99459.91;;;12.84;90.35
57000;BME280;42891;50.006;21.964;2022-11-02T07:11:13;99465.34;;;13.02;89.70
57000;BME280;42891;50.006;21.964;2022-11-02T07:15:15;99466.00;;;13.14;89.17
57000;BME280;42891;50.006;21.964;2022-11-02T07:19:15;99464.22;;;13.15;89.22
57000;BME280;42891;50.006;21.964;2022-11-02T07:23:15;99463.34;;;13.14;88.97
57000;BME280;42891;50.006;21.964;2022-11-02T07:27:15;99465.72;;;13.17;89.12
57000;BME280;42891;50.006;21.964;2022-11-02T07:31:16;99452.88;;;13.22;89.24
57000;BME280;42891;50.006;21.964;2022-11-02T07:35:16;99451.78;;;13.25;89.26
57000;BME280;42891;50.006;21.964;2022-11-02T07:39:16;99460.41;;;13.37;88.66
57000;BME280;42891;50.006;21.964;2022-11-02T07:43:17;99457.19;;;13.33;88.82
57000;BME280;42891;50.006;21.964;2022-11-02T07:47:18;99456.50;;;13.31;89.03
57000;BME280;42891;50.006;21.964;2022-11-02T07:51:18;99452.06;;;13.22;89.13
57000;BME280;42891;50.006;21.964;2022-11-02T07:55:19;99459.88;;;13.43;88.92
57000;BME280;42891;50.006;21.964;2022-11-02T07:59:20;99448.00;;;13.47;88.75
57000;BME280;42891;50.006;21.964;2022-11-02T08:03:21;99453.00;;;13.30;89.19
57000;BME280;42891;50.006;21.964;2022-11-02T08:07:21;99443.25;;;13.11;90.42
57000;BME280;42891;50.006;21.964;2022-11-02T08:11:21;99446.34;;;13.36;89.95
57000;BME280;42891;50.006;21.964;2022-11-02T08:15:21;99441.97;;;13.45;89.43
57000;BME280;42891;50.006;21.964;2022-11-02T08:19:22;99450.34;;;13.30;89.73
57000;BME280;42891;50.006;21.964;2022-11-02T08:23:22;99446.75;;;13.32;89.29
57000;BME280;42891;50.006;21.964;2022-11-02T08:27:23;99447.16;;;13.37;89.35
57000;BME280;42891;50.006;21.964;2022-11-02T08:31:23;99434.00;;;13.55;87.79
57000;BME280;42891;50.006;21.964;2022-11-02T08:35:23;99435.06;;;13.72;87.80
57000;BME280;42891;50.006;21.964;2022-11-02T08:39:23;99435.22;;;13.70;87.76
57000;BME280;42891;50.006;21.964;2022-11-02T08:43:24;99439.09;;;13.76;87.38
57000;BME280;42891;50.006;21.964;2022-11-02T08:47:24;99439.38;;;13.83;87.62
57000;BME280;42891;50.006;21.964;2022-11-02T08:51:24;99430.59;;;14.00;87.34
57000;BME280;42891;50.006;21.964;2022-11-02T08:55:24;99424.31;;;14.01;87.42
57000;BME280;42891;50.006;21.964;2022-11-02T08:59:25;99426.16;;;13.91;87.14
57000;BME280;42891;50.006;21.964;2022-11-02T09:03:25;99432.09;;;14.12;87.04
57000;BME280;42891;50.006;21.964;2022-11-02T09:07:27;99428.25;;;14.25;85.73
57000;BME280;42891;50.006;21.964;2022-11-02T09:11:27;99443.03;;;14.27;85.25
57000;BME280;42891;50.006;21.964;2022-11-02T09:15:28;99433.25;;;14.28;85.04
57000;BME280;42891;50.006;21.964;2022-11-02T09:19:28;99434.13;;;14.46;85.35
57000;BME280;42891;50.006;21.964;2022-11-02T09:23:29;99431.69;;;14.53;84.45
57000;BME280;42891;50.006;21.964;2022-11-02T09:27:29;99422.69;;;14.64;84.19
57000;BME280;42891;50.006;21.964;2022-11-02T09:31:29;99434.16;;;14.64;83.01
57000;BME280;42891;50.006;21.964;2022-11-02T09:35:47;99425.19;;;14.65;82.84
57000;BME280;42891;50.006;21.964;2022-11-02T09:39:48;99427.78;;;14.75;82.26
57000;BME280;42891;50.006;21.964;2022-11-02T09:43:59;99426.56;;;14.88;82.18
57000;BME280;42891;50.006;21.964;2022-11-02T09:48:06;99421.69;;;14.83;80.50
57000;BME280;42891;50.006;21.964;2022-11-02T09:52:12;99413.00;;;14.99;80.74
57000;BME280;42891;50.006;21.964;2022-11-02T09:56:15;99413.72;;;15.01;80.27
57000;BME280;42891;50.006;21.964;2022-11-02T10:00:16;99412.72;;;15.02;79.75
57000;BME280;42891;50.006;21.964;2022-11-02T10:17:17;99417.13;;;15.38;78.08
57000;BME280;42891;50.006;21.964;2022-11-02T10:21:25;99417.47;;;15.43;77.65
57000;BME280;42891;50.006;21.964;2022-11-02T10:25:26;99410.31;;;15.43;76.84
57000;BME280;42891;50.006;21.964;2022-11-02T10:33:45;99409.13;;;15.64;73.88
57000;BME280;42891;50.006;21.964;2022-11-02T10:50:19;99400.50;;;16.13;72.07
57000;BME280;42891;50.006;21.964;2022-11-02T10:54:26;99400.53;;;16.21;72.10
57000;BME280;42891;50.006;21.964;2022-11-02T10:58:27;99396.41;;;16.35;71.70
57000;BME280;42891;50.006;21.964;2022-11-02T11:02:29;99388.59;;;16.50;71.82
57000;BME280;42891;50.006;21.964;2022-11-02T11:06:39;99397.06;;;16.21;69.86
57000;BME280;42891;50.006;21.964;2022-11-02T11:10:40;99391.28;;;16.58;70.07
57000;BME280;42891;50.006;21.964;2022-11-02T11:14:45;99388.25;;;16.45;68.83
57000;BME280;42891;50.006;21.964;2022-11-02T11:18:48;99382.13;;;16.61;68.89
57000;BME280;42891;50.006;21.964;2022-11-02T11:23:05;99385.28;;;16.81;68.38
57000;BME280;42891;50.006;21.964;2022-11-02T11:31:13;99389.31;;;17.10;68.06
57000;BME280;42891;50.006;21.964;2022-11-02T11:35:15;99379.97;;;17.06;67.66
57000;BME280;42891;50.006;21.964;2022-11-02T11:39:25;99378.28;;;17.13;67.14
57000;BME280;42891;50.006;21.964;2022-11-02T11:43:28;99377.72;;;17.50;66.10
57000;BME280;42891;50.006;21.964;2022-11-02T11:47:30;99367.03;;;18.76;63.93
57000;BME280;42891;50.006;21.964;2022-11-02T11:51:38;99366.13;;;19.22;59.52
57000;BME280;42891;50.006;21.964;2022-11-02T11:55:47;99375.91;;;19.15;59.15
57000;BME280;42891;50.006;21.964;2022-11-02T11:59:49;99372.13;;;18.86;59.49
57000;BME280;42891;50.006;21.964;2022-11-02T12:03:57;99379.78;;;19.12;58.33
57000;BME280;42891;50.006;21.964;2022-11-02T12:29:32;99369.19;;;22.00;48.74
57000;BME280;42891;50.006;21.964;2022-11-02T12:33:16;99364.22;;;21.20;49.30
57000;BME280;42891;50.006;21.964;2022-11-02T12:54:27;99355.94;;;24.31;38.42
57000;BME280;42891;50.006;21.964;2022-11-02T12:58:31;99355.72;;;24.72;39.00
57000;BME280;42891;50.006;21.964;2022-11-02T13:07:00;99377.19;;;25.54;37.61
57000;BME280;42891;50.006;21.964;2022-11-02T13:11:06;99370.47;;;25.45;37.35
57000;BME280;42891;50.006;21.964;2022-11-02T13:15:14;99371.38;;;26.25;36.53
57000;BME280;42891;50.006;21.964;2022-11-02T13:19:17;99368.56;;;25.45;38.29
57000;BME280;42891;50.006;21.964;2022-11-02T13:27:35;99366.34;;;24.60;38.12
57000;BME280;42891;50.006;21.964;2022-11-02T13:31:49;99373.09;;;23.53;39.74
57000;BME280;42891;50.006;21.964;2022-11-02T13:35:50;99369.59;;;22.92;41.09
57000;BME280;42891;50.006;21.964;2022-11-02T13:39:53;99372.69;;;22.56;41.56
57000;BME280;42891;50.006;21.964;2022-11-02T13:52:11;99392.75;;;23.54;40.06
57000;BME280;42891;50.006;21.964;2022-11-02T13:56:11;99385.44;;;23.81;39.74
57000;BME280;42891;50.006;21.964;2022-11-02T14:04:23;99396.13;;;23.09;41.63
57000;BME280;42891;50.006;21.964;2022-11-02T14:08:31;99394.81;;;21.26;44.01
57000;BME280;42891;50.006;21.964;2022-11-02T14:12:54;99399.19;;;21.27;42.41
57000;BME280;42891;50.006;21.964;2022-11-02T14:16:57;99392.63;;;20.80;42.84
57000;BME280;42891;50.006;21.964;2022-11-02T14:20:58;99388.84;;;20.37;43.85
57000;BME280;42891;50.006;21.964;2022-11-02T14:25:18;99396.91;;;19.86;44.84
57000;BME280;42891;50.006;21.964;2022-11-02T14:29:53;99389.63;;;19.80;46.09
57000;BME280;42891;50.006;21.964;2022-11-02T14:33:52;99394.13;;;19.64;46.91
57000;BME280;42891;50.006;21.964;2022-11-02T14:42:17;99390.75;;;19.02;48.85
57000;BME280;42891;50.006;21.964;2022-11-02T14:50:21;99392.78;;;18.54;50.94
57000;BME280;42891;50.006;21.964;2022-11-02T14:54:22;99389.31;;;18.68;50.87
57000;BME280;42891;50.006;21.964;2022-11-02T14:58:38;99398.34;;;18.44;51.68
57000;BME280;42891;50.006;21.964;2022-11-02T15:02:40;99400.53;;;18.40;51.96
57000;BME280;42891;50.006;21.964;2022-11-02T15:06:40;99398.09;;;18.31;52.02
57000;BME280;42891;50.006;21.964;2022-11-02T15:10:49;99401.53;;;18.48;51.81
57000;BME280;42891;50.006;21.964;2022-11-02T15:14:50;99401.69;;;18.46;52.27
57000;BME280;42891;50.006;21.964;2022-11-02T15:18:52;99406.91;;;18.39;52.17
57000;BME280;42891;50.006;21.964;2022-11-02T15:27:13;99413.59;;;18.04;52.47
57000;BME280;42891;50.006;21.964;2022-11-02T15:31:17;99415.66;;;17.94;53.24
57000;BME280;42891;50.006;21.964;2022-11-02T15:35:29;99423.00;;;17.83;53.74
57000;BME280;42891;50.006;21.964;2022-11-02T15:39:30;99423.91;;;17.67;54.78
57000;BME280;42891;50.006;21.964;2022-11-02T15:48:16;99434.97;;;17.40;54.83
57000;BME280;42891;50.006;21.964;2022-11-02T16:00:24;99434.66;;;17.10;55.92
57000;BME280;42891;50.006;21.964;2022-11-02T16:04:29;99432.16;;;16.92;56.61
57000;BME280;42891;50.006;21.964;2022-11-02T16:08:30;99436.47;;;16.76;57.21
57000;BME280;42891;50.006;21.964;2022-11-02T16:12:33;99430.78;;;16.63;57.14
57000;BME280;42891;50.006;21.964;2022-11-02T16:16:34;99431.28;;;16.58;57.56
57000;BME280;42891;50.006;21.964;2022-11-02T16:20:44;99440.56;;;16.46;57.84
57000;BME280;42891;50.006;21.964;2022-11-02T16:24:44;99436.91;;;16.47;57.58
57000;BME280;42891;50.006;21.964;2022-11-02T16:28:49;99427.19;;;16.21;57.31
57000;BME280;42891;50.006;21.964;2022-11-02T16:32:51;99437.34;;;16.17;58.48
57000;BME280;42891;50.006;21.964;2022-11-02T16:36:57;99439.81;;;16.11;58.28
57000;BME280;42891;50.006;21.964;2022-11-02T16:41:00;99442.78;;;15.99;58.53
57000;BME280;42891;50.006;21.964;2022-11-02T16:45:01;99449.22;;;15.89;58.89
57000;BME280;42891;50.006;21.964;2022-11-02T16:53:11;99452.41;;;15.66;58.68
57000;BME280;42891;50.006;21.964;2022-11-02T17:01:32;99460.75;;;15.27;60.22
57000;BME280;42891;50.006;21.964;2022-11-02T17:05:32;99467.28;;;14.88;60.94
57000;BME280;42891;50.006;21.964;2022-11-02T17:09:33;99470.84;;;14.79;61.65
57000;BME280;42891;50.006;21.964;2022-11-02T17:13:34;99476.75;;;14.73;62.01
57000;BME280;42891;50.006;21.964;2022-11-02T17:17:37;99472.72;;;14.69;61.92
57000;BME280;42891;50.006;21.964;2022-11-02T17:21:38;99480.69;;;14.69;61.66
57000;BME280;42891;50.006;21.964;2022-11-02T17:25:46;99485.78;;;14.62;61.54
57000;BME280;42891;50.006;21.964;2022-11-02T17:29:46;99493.81;;;14.52;61.63
57000;BME280;42891;50.006;21.964;2022-11-02T17:33:46;99489.22;;;14.44;62.22
57000;BME280;42891;50.006;21.964;2022-11-02T17:37:47;99484.69;;;14.27;62.45
57000;BME280;42891;50.006;21.964;2022-11-02T17:41:52;99491.06;;;14.16;63.03
57000;BME280;42891;50.006;21.964;2022-11-02T17:46:11;99489.94;;;14.09;63.29
57000;BME280;42891;50.006;21.964;2022-11-02T17:50:11;99486.22;;;14.02;63.47
57000;BME280;42891;50.006;21.964;2022-11-02T17:54:12;99495.91;;;13.93;63.75
57000;BME280;42891;50.006;21.964;2022-11-02T17:58:12;99490.78;;;13.81;64.24
57000;BME280;42891;50.006;21.964;2022-11-02T18:02:14;99491.88;;;13.79;64.55
57000;BME280;42891;50.006;21.964;2022-11-02T18:06:14;99496.97;;;13.62;64.65
57000;BME280;42891;50.006;21.964;2022-11-02T18:10:15;99496.31;;;13.51;64.90
57000;BME280;42891;50.006;21.964;2022-11-02T18:14:15;99499.81;;;13.41;65.43
57000;BME280;42891;50.006;21.964;2022-11-02T18:18:16;99495.31;;;13.32;65.41
57000;BME280;42891;50.006;21.964;2022-11-02T18:22:16;99497.44;;;13.19;66.41
57000;BME280;42891;50.006;21.964;2022-11-02T18:26:16;99491.41;;;12.97;66.63
57000;BME280;42891;50.006;21.964;2022-11-02T18:30:16;99501.88;;;12.89;67.38
57000;BME280;42891;50.006;21.964;2022-11-02T18:34:17;99497.25;;;12.91;67.49
57000;BME280;42891;50.006;21.964;2022-11-02T18:38:17;99495.31;;;12.93;67.25
57000;BME280;42891;50.006;21.964;2022-11-02T18:42:17;99492.81;;;12.82;67.42
57000;BME280;42891;50.006;21.964;2022-11-02T18:46:18;99488.19;;;12.74;67.28
57000;BME280;42891;50.006;21.964;2022-11-02T18:50:18;99499.34;;;12.68;66.74
57000;BME280;42891;50.006;21.964;2022-11-02T18:54:18;99501.25;;;12.56;67.47
57000;BME280;42891;50.006;21.964;2022-11-02T18:58:18;99502.13;;;12.56;67.96
57000;BME280;42891;50.006;21.964;2022-11-02T19:02:18;99497.72;;;12.26;68.61
57000;BME280;42891;50.006;21.964;2022-11-02T19:06:19;99499.72;;;12.03;69.66
57000;BME280;42891;50.006;21.964;2022-11-02T19:10:44;99501.19;;;11.65;71.18
57000;BME280;42891;50.006;21.964;2022-11-02T19:14:46;99505.56;;;11.54;72.89
57000;BME280;42891;50.006;21.964;2022-11-02T19:18:48;99509.47;;;11.60;73.44
57000;BME280;42891;50.006;21.964;2022-11-02T19:22:52;99518.34;;;11.70;72.70
57000;BME280;42891;50.006;21.964;2022-11-02T19:26:52;99513.50;;;11.54;73.44
57000;BME280;42891;50.006;21.964;2022-11-02T19:30:52;99520.00;;;11.50;74.12
57000;BME280;42891;50.006;21.964;2022-11-02T19:34:53;99521.28;;;11.35;74.62
57000;BME280;42891;50.006;21.964;2022-11-02T19:38:53;99532.25;;;11.51;73.56
57000;BME280;42891;50.006;21.964;2022-11-02T19:42:53;99528.34;;;11.46;73.38
57000;BME280;42891;50.006;21.964;2022-11-02T19:46:53;99527.59;;;11.22;73.54
57000;BME280;42891;50.006;21.964;2022-11-02T19:50:53;99519.72;;;11.11;74.23
57000;BME280;42891;50.006;21.964;2022-11-02T19:54:54;99535.41;;;10.91;74.94
57000;BME280;42891;50.006;21.964;2022-11-02T19:58:54;99540.97;;;10.66;76.93
57000;BME280;42891;50.006;21.964;2022-11-02T20:02:54;99543.16;;;10.61;77.04
57000;BME280;42891;50.006;21.964;2022-11-02T20:06:55;99545.59;;;10.52;78.14
57000;BME280;42891;50.006;21.964;2022-11-02T20:11:05;99553.50;;;10.52;78.60
57000;BME280;42891;50.006;21.964;2022-11-02T20:15:06;99558.63;;;10.65;78.43
57000;BME280;42891;50.006;21.964;2022-11-02T20:19:06;99559.94;;;10.71;78.28
57000;BME280;42891;50.006;21.964;2022-11-02T20:23:07;99562.22;;;10.87;77.66
57000;BME280;42891;50.006;21.964;2022-11-02T20:27:08;99567.72;;;10.84;78.22
57000;BME280;42891;50.006;21.964;2022-11-02T20:31:09;99573.16;;;10.71;79.06
57000;BME280;42891;50.006;21.964;2022-11-02T20:35:10;99579.38;;;10.81;78.42
57000;BME280;42891;50.006;21.964;2022-11-02T20:39:10;99568.53;;;10.96;77.89
57000;BME280;42891;50.006;21.964;2022-11-02T20:43:12;99572.22;;;11.04;77.34
57000;BME280;42891;50.006;21.964;2022-11-02T20:47:12;99575.22;;;11.11;76.73
57000;BME280;42891;50.006;21.964;2022-11-02T20:51:12;99578.72;;;11.00;76.99
57000;BME280;42891;50.006;21.964;2022-11-02T20:55:12;99581.00;;;11.05;77.02
57000;BME280;42891;50.006;21.964;2022-11-02T20:59:13;99566.56;;;11.09;76.68
57000;BME280;42891;50.006;21.964;2022-11-02T21:03:13;99571.16;;;11.07;76.35
57000;BME280;42891;50.006;21.964;2022-11-02T21:07:14;99568.88;;;11.02;76.67
57000;BME280;42891;50.006;21.964;2022-11-02T21:11:14;99577.84;;;10.79;77.79
57000;BME280;42891;50.006;21.964;2022-11-02T21:15:35;99583.22;;;10.88;77.53
57000;BME280;42891;50.006;21.964;2022-11-02T21:19:36;99578.88;;;10.87;78.65
57000;BME280;42891;50.006;21.964;2022-11-02T21:23:36;99588.72;;;10.97;77.49
57000;BME280;42891;50.006;21.964;2022-11-02T21:27:37;99595.69;;;10.86;81.30
57000;BME280;42891;50.006;21.964;2022-11-02T21:31:37;99596.56;;;10.87;82.50
57000;BME280;42891;50.006;21.964;2022-11-02T21:35:37;99591.47;;;10.95;83.12
57000;BME280;42891;50.006;21.964;2022-11-02T21:39:37;99597.97;;;11.02;83.92
57000;BME280;42891;50.006;21.964;2022-11-02T21:43:37;99598.09;;;11.01;85.23
57000;BME280;42891;50.006;21.964;2022-11-02T21:47:37;99596.75;;;11.06;85.54
57000;BME280;42891;50.006;21.964;2022-11-02T21:51:38;99599.72;;;11.13;85.81
57000;BME280;42891;50.006;21.964;2022-11-02T21:55:38;99583.63;;;11.16;85.52
57000;BME280;42891;50.006;21.964;2022-11-02T21:59:38;99595.44;;;11.33;84.93
57000;BME280;42891;50.006;21.964;2022-11-02T22:03:38;99587.78;;;11.30;85.09
57000;BME280;42891;50.006;21.964;2022-11-02T22:07:38;99576.47;;;11.28;84.94
57000;BME280;42891;50.006;21.964;2022-11-02T22:11:58;99589.34;;;11.33;84.72
57000;BME280;42891;50.006;21.964;2022-11-02T22:16:21;99591.72;;;11.36;84.38
57000;BME280;42891;50.006;21.964;2022-11-02T22:20:26;99595.94;;;11.27;84.84
57000;BME280;42891;50.006;21.964;2022-11-02T22:24:26;99609.63;;;11.32;84.30
57000;BME280;42891;50.006;21.964;2022-11-02T22:28:30;99605.06;;;11.34;84.08
57000;BME280;42891;50.006;21.964;2022-11-02T22:32:31;99609.63;;;11.32;84.00
57000;BME280;42891;50.006;21.964;2022-11-02T22:36:31;99609.75;;;11.31;84.18
57000;BME280;42891;50.006;21.964;2022-11-02T22:40:32;99611.19;;;11.35;83.93
57000;BME280;42891;50.006;21.964;2022-11-02T22:44:32;99619.03;;;11.25;84.45
57000;BME280;42891;50.006;21.964;2022-11-02T22:48:32;99617.09;;;11.27;83.86
57000;BME280;42891;50.006;21.964;2022-11-02T22:52:33;99621.28;;;11.30;83.59
57000;BME280;42891;50.006;21.964;2022-11-02T22:56:33;99609.28;;;11.37;83.28
57000;BME280;42891;50.006;21.964;2022-11-02T23:00:33;99617.63;;;11.42;82.80
57000;BME280;42891;50.006;21.964;2022-11-02T23:04:34;99614.88;;;11.43;82.23
57000;BME280;42891;50.006;21.964;2022-11-02T23:08:35;99613.16;;;11.54;81.39
57000;BME280;42891;50.006;21.964;2022-11-02T23:12:35;99610.50;;;11.54;81.27
57000;BME280;42891;50.006;21.964;2022-11-02T23:16:42;99618.31;;;11.55;81.02
57000;BME280;42891;50.006;21.964;2022-11-02T23:20:49;99620.84;;;11.13;82.31
57000;BME280;42891;50.006;21.964;2022-11-02T23:24:56;99630.06;;;11.30;82.17
57000;BME280;42891;50.006;21.964;2022-11-02T23:29:16;99629.72;;;11.23;81.86
57000;BME280;42891;50.006;21.964;2022-11-02T23:33:36;99629.50;;;11.15;82.69
57000;BME280;42891;50.006;21.964;2022-11-02T23:37:36;99632.19;;;11.04;82.95
57000;BME280;42891;50.006;21.964;2022-11-02T23:41:36;99633.84;;;11.05;82.72